sensor_id;sensor_type;location;lat;lon;timestamp;temperature;humidity
13976;DHT22;7062;49.792;9.946;2022-10-30T00:00:20;14.30;99.90
13976;DHT22;7062;49.792;9.946;2022-10-30T00:02:48;14.40;99.90
13976;DHT22;7062;49.792;9.946;2022-10-30T00:05:14;14.30;99.90
13976;DHT22;7062;49.792;9.946;2022-10-30T00:07:40;14.30;99.90
13976;DHT22;7062;49.792;9.946;2022-10-30T00:10:06;14.40;99.90
13976;DHT22;7062;49.792;9.946;2022-10-30T00:12:32;14.30;99.90
13976;DHT22;7062;49.792;9.946;2022-10-30T00:14:58;14.20;99.90
13976;DHT22;7062;49.792;9.946;2022-10-30T00:17:24;14.10;99.90
13976;DHT22;7062;49.792;9.946;2022-10-30T00:19:49;14.10;99.90
13976;DHT22;7062;49.792;9.946;2022-10-30T00:22:15;14.00;99.90
13976;DHT22;7062;49.792;9.946;2022-10-30T00:24:41;14.00;99.90
13976;DHT22;7062;49.792;9.946;2022-10-30T00:27:06;14.10;99.90
13976;DHT22;7062;49.792;9.946;2022-10-30T00:29:32;14.10;99.90
13976;DHT22;7062;49.792;9.946;2022-10-30T00:31:57;14.00;99.90
13976;DHT22;7062;49.792;9.946;2022-10-30T00:34:23;14.00;99.90
13976;DHT22;7062;49.792;9.946;2022-10-30T00:36:49;14.10;99.90
13976;DHT22;7062;49.792;9.946;2022-10-30T00:39:14;14.00;99.90
13976;DHT22;7062;49.792;9.946;2022-10-30T00:41:40;14.10;99.90
13976;DHT22;7062;49.792;9.946;2022-10-30T00:46:58;14.20;99.90
13976;DHT22;7062;49.792;9.946;2022-10-30T00:49:34;14.10;99.90
13976;DHT22;7062;49.792;9.946;2022-10-30T00:52:02;14.20;99.90
13976;DHT22;7062;49.792;9.946;2022-10-30T00:54:30;14.20;99.90
13976;DHT22;7062;49.792;9.946;2022-10-30T00:56:57;14.20;99.90
13976;DHT22;7062;49.792;9.946;2022-10-30T00:59:30;14.20;99.90
13976;DHT22;7062;49.792;9.946;2022-10-30T01:01:57;14.10;99.90
13976;DHT22;7062;49.792;9.946;2022-10-30T01:04:24;14.00;99.90
13976;DHT22;7062;49.792;9.946;2022-10-30T01:06:51;13.90;99.90
13976;DHT22;7062;49.792;9.946;2022-10-30T01:09:21;13.90;99.90
13976;DHT22;7062;49.792;9.946;2022-10-30T01:11:47;14.00;99.90
13976;DHT22;7062;49.792;9.946;2022-10-30T01:14:15;13.80;99.90
13976;DHT22;7062;49.792;9.946;2022-10-30T01:17:19;13.80;99.90
13976;DHT22;7062;49.792;9.946;2022-10-30T01:33:17;13.90;99.90
13976;DHT22;7062;49.792;9.946;2022-10-30T01:35:54;13.90;99.90
13976;DHT22;7062;49.792;9.946;2022-10-30T01:38:46;13.90;99.90
13976;DHT22;7062;49.792;9.946;2022-10-30T01:41:12;13.90;99.90
13976;DHT22;7062;49.792;9.946;2022-10-30T01:43:38;14.00;99.90
13976;DHT22;7062;49.792;9.946;2022-10-30T01:46:10;13.90;99.90
13976;DHT22;7062;49.792;9.946;2022-10-30T01:54:25;13.80;99.90
13976;DHT22;7062;49.792;9.946;2022-10-30T02:00:01;13.80;99.90
13976;DHT22;7062;49.792;9.946;2022-10-30T02:02:28;13.80;99.90
13976;DHT22;7062;49.792;9.946;2022-10-30T02:04:55;13.70;99.90
13976;DHT22;7062;49.792;9.946;2022-10-30T02:07:21;13.70;99.90
13976;DHT22;7062;49.792;9.946;2022-10-30T02:09:49;13.70;99.90
13976;DHT22;7062;49.792;9.946;2022-10-30T02:12:15;13.70;99.90
13976;DHT22;7062;49.792;9.946;2022-10-30T02:14:44;13.60;99.90
13976;DHT22;7062;49.792;9.946;2022-10-30T02:17:11;13.70;99.90
13976;DHT22;7062;49.792;9.946;2022-10-30T02:19:37;13.70;99.90
13976;DHT22;7062;49.792;9.946;2022-10-30T02:22:03;13.70;99.90
13976;DHT22;7062;49.792;9.946;2022-10-30T02:24:30;13.70;99.90
13976;DHT22;7062;49.792;9.946;2022-10-30T02:26:56;13.60;99.90
13976;DHT22;7062;49.792;9.946;2022-10-30T02:29:21;13.60;99.90
13976;DHT22;7062;49.792;9.946;2022-10-30T02:31:47;13.60;99.90
13976;DHT22;7062;49.792;9.946;2022-10-30T02:34:14;13.50;99.90
13976;DHT22;7062;49.792;9.946;2022-10-30T02:36:39;13.40;99.90
13976;DHT22;7062;49.792;9.946;2022-10-30T02:39:05;13.50;99.90
13976;DHT22;7062;49.792;9.946;2022-10-30T02:41:31;13.60;99.90
13976;DHT22;7062;49.792;9.946;2022-10-30T02:43:57;13.60;99.90
13976;DHT22;7062;49.792;9.946;2022-10-30T02:46:23;13.60;99.90
13976;DHT22;7062;49.792;9.946;2022-10-30T02:48:48;13.50;99.90
13976;DHT22;7062;49.792;9.946;2022-10-30T02:51:14;13.40;99.90
13976;DHT22;7062;49.792;9.946;2022-10-30T02:53:40;13.40;99.90
13976;DHT22;7062;49.792;9.946;2022-10-30T02:56:11;13.50;99.90
13976;DHT22;7062;49.792;9.946;2022-10-30T02:58:40;13.50;99.90
13976;DHT22;7062;49.792;9.946;2022-10-30T03:01:11;13.50;99.90
13976;DHT22;7062;49.792;9.946;2022-10-30T03:03:38;13.50;99.90
13976;DHT22;7062;49.792;9.946;2022-10-30T03:06:05;13.50;99.90
13976;DHT22;7062;49.792;9.946;2022-10-30T03:08:32;13.50;99.90
13976;DHT22;7062;49.792;9.946;2022-10-30T03:11:24;13.40;99.90
13976;DHT22;7062;49.792;9.946;2022-10-30T03:13:50;13.30;99.90
13976;DHT22;7062;49.792;9.946;2022-10-30T03:16:23;13.20;99.90
13976;DHT22;7062;49.792;9.946;2022-10-30T03:18:50;13.20;99.90
13976;DHT22;7062;49.792;9.946;2022-10-30T03:21:19;13.30;99.90
13976;DHT22;7062;49.792;9.946;2022-10-30T03:23:45;13.30;99.90
13976;DHT22;7062;49.792;9.946;2022-10-30T03:26:10;13.10;99.90
13976;DHT22;7062;49.792;9.946;2022-10-30T03:28:36;13.00;99.90
13976;DHT22;7062;49.792;9.946;2022-10-30T03:31:11;13.10;99.90
13976;DHT22;7062;49.792;9.946;2022-10-30T03:33:37;13.00;99.90
13976;DHT22;7062;49.792;9.946;2022-10-30T03:36:04;13.00;99.90
13976;DHT22;7062;49.792;9.946;2022-10-30T03:38:30;12.90;99.90
13976;DHT22;7062;49.792;9.946;2022-10-30T03:40:56;13.00;99.90
13976;DHT22;7062;49.792;9.946;2022-10-30T03:43:21;12.90;99.90
13976;DHT22;7062;49.792;9.946;2022-10-30T03:45:49;13.00;99.90
13976;DHT22;7062;49.792;9.946;2022-10-30T03:48:16;13.10;99.90
13976;DHT22;7062;49.792;9.946;2022-10-30T03:50:42;13.20;99.90
13976;DHT22;7062;49.792;9.946;2022-10-30T03:53:08;13.20;99.90
13976;DHT22;7062;49.792;9.946;2022-10-30T03:55:34;13.20;99.90
13976;DHT22;7062;49.792;9.946;2022-10-30T03:57:59;13.20;99.90
13976;DHT22;7062;49.792;9.946;2022-10-30T04:00:25;13.20;99.90
13976;DHT22;7062;49.792;9.946;2022-10-30T04:02:51;13.30;99.90
13976;DHT22;7062;49.792;9.946;2022-10-30T04:05:19;13.30;99.90
13976;DHT22;7062;49.792;9.946;2022-10-30T04:07:46;13.20;99.90
13976;DHT22;7062;49.792;9.946;2022-10-30T04:10:13;13.20;99.90
13976;DHT22;7062;49.792;9.946;2022-10-30T04:12:38;13.30;99.90
13976;DHT22;7062;49.792;9.946;2022-10-30T04:15:05;13.20;99.90
13976;DHT22;7062;49.792;9.946;2022-10-30T04:17:31;13.20;99.90
13976;DHT22;7062;49.792;9.946;2022-10-30T04:19:57;13.30;99.90
13976;DHT22;7062;49.792;9.946;2022-10-30T04:22:23;13.30;99.90
13976;DHT22;7062;49.792;9.946;2022-10-30T04:24:48;13.30;99.90
13976;DHT22;7062;49.792;9.946;2022-10-30T04:27:15;13.30;99.90
13976;DHT22;7062;49.792;9.946;2022-10-30T04:29:40;13.10;99.90
13976;DHT22;7062;49.792;9.946;2022-10-30T04:32:07;13.20;99.90
13976;DHT22;7062;49.792;9.946;2022-10-30T04:34:33;13.00;99.90
13976;DHT22;7062;49.792;9.946;2022-10-30T04:36:59;13.00;99.90
13976;DHT22;7062;49.792;9.946;2022-10-30T04:39:25;12.90;99.90
13976;DHT22;7062;49.792;9.946;2022-10-30T04:41:51;12.80;99.90
13976;DHT22;7062;49.792;9.946;2022-10-30T04:44:16;12.80;99.90
13976;DHT22;7062;49.792;9.946;2022-10-30T04:46:42;12.60;99.90
13976;DHT22;7062;49.792;9.946;2022-10-30T04:49:08;12.60;99.90
13976;DHT22;7062;49.792;9.946;2022-10-30T04:51:34;12.60;99.90
13976;DHT22;7062;49.792;9.946;2022-10-30T04:53:59;12.60;99.90
13976;DHT22;7062;49.792;9.946;2022-10-30T04:56:25;12.60;99.90
13976;DHT22;7062;49.792;9.946;2022-10-30T04:58:50;12.60;99.90
13976;DHT22;7062;49.792;9.946;2022-10-30T05:01:18;12.60;99.90
13976;DHT22;7062;49.792;9.946;2022-10-30T05:03:43;12.80;99.90
13976;DHT22;7062;49.792;9.946;2022-10-30T05:06:21;12.80;99.90
13976;DHT22;7062;49.792;9.946;2022-10-30T05:08:48;12.90;99.90
13976;DHT22;7062;49.792;9.946;2022-10-30T05:11:14;12.90;99.90
13976;DHT22;7062;49.792;9.946;2022-10-30T05:13:40;13.00;99.90
13976;DHT22;7062;49.792;9.946;2022-10-30T05:16:06;12.90;99.90
13976;DHT22;7062;49.792;9.946;2022-10-30T05:18:31;12.80;99.90
13976;DHT22;7062;49.792;9.946;2022-10-30T05:20:57;12.80;99.90
13976;DHT22;7062;49.792;9.946;2022-10-30T05:23:23;12.90;99.90
13976;DHT22;7062;49.792;9.946;2022-10-30T05:25:48;12.80;99.90
13976;DHT22;7062;49.792;9.946;2022-10-30T05:28:14;12.90;99.90
13976;DHT22;7062;49.792;9.946;2022-10-30T05:30:40;12.90;99.90
13976;DHT22;7062;49.792;9.946;2022-10-30T05:33:09;13.00;99.90
13976;DHT22;7062;49.792;9.946;2022-10-30T05:35:35;13.00;99.90
13976;DHT22;7062;49.792;9.946;2022-10-30T05:38:03;13.10;99.90
13976;DHT22;7062;49.792;9.946;2022-10-30T05:40:30;13.00;99.90
13976;DHT22;7062;49.792;9.946;2022-10-30T05:42:56;12.90;99.90
13976;DHT22;7062;49.792;9.946;2022-10-30T05:45:22;13.00;99.90
13976;DHT22;7062;49.792;9.946;2022-10-30T05:48:02;13.00;99.90
13976;DHT22;7062;49.792;9.946;2022-10-30T05:50:28;13.00;99.90
13976;DHT22;7062;49.792;9.946;2022-10-30T05:52:59;13.00;99.90
13976;DHT22;7062;49.792;9.946;2022-10-30T05:55:26;13.00;99.90
13976;DHT22;7062;49.792;9.946;2022-10-30T05:57:59;12.90;99.90
13976;DHT22;7062;49.792;9.946;2022-10-30T06:00:26;12.90;99.90
13976;DHT22;7062;49.792;9.946;2022-10-30T06:03:04;12.90;99.90
13976;DHT22;7062;49.792;9.946;2022-10-30T06:05:32;12.90;99.90
13976;DHT22;7062;49.792;9.946;2022-10-30T06:07:58;12.90;99.90
13976;DHT22;7062;49.792;9.946;2022-10-30T06:10:24;13.00;99.90
13976;DHT22;7062;49.792;9.946;2022-10-30T06:12:54;13.00;99.90
13976;DHT22;7062;49.792;9.946;2022-10-30T06:15:21;13.00;99.90
13976;DHT22;7062;49.792;9.946;2022-10-30T06:17:47;13.00;99.90
13976;DHT22;7062;49.792;9.946;2022-10-30T06:20:13;13.00;99.90
13976;DHT22;7062;49.792;9.946;2022-10-30T06:22:39;13.00;99.90
13976;DHT22;7062;49.792;9.946;2022-10-30T06:25:05;13.00;99.90
13976;DHT22;7062;49.792;9.946;2022-10-30T06:27:33;13.00;99.90
13976;DHT22;7062;49.792;9.946;2022-10-30T06:29:59;13.10;99.90
13976;DHT22;7062;49.792;9.946;2022-10-30T06:32:25;13.00;99.90
13976;DHT22;7062;49.792;9.946;2022-10-30T06:34:50;13.10;99.90
13976;DHT22;7062;49.792;9.946;2022-10-30T06:37:16;13.00;99.90
13976;DHT22;7062;49.792;9.946;2022-10-30T06:39:41;12.80;99.90
13976;DHT22;7062;49.792;9.946;2022-10-30T06:42:08;12.70;99.90
13976;DHT22;7062;49.792;9.946;2022-10-30T06:44:33;12.60;99.90
13976;DHT22;7062;49.792;9.946;2022-10-30T06:46:59;12.50;99.90
13976;DHT22;7062;49.792;9.946;2022-10-30T06:49:25;12.50;99.90
13976;DHT22;7062;49.792;9.946;2022-10-30T06:51:51;12.30;99.90
13976;DHT22;7062;49.792;9.946;2022-10-30T06:54:16;12.30;99.90
13976;DHT22;7062;49.792;9.946;2022-10-30T06:56:42;12.30;99.90
13976;DHT22;7062;49.792;9.946;2022-10-30T06:59:08;12.40;99.90
13976;DHT22;7062;49.792;9.946;2022-10-30T07:01:34;12.40;99.90
13976;DHT22;7062;49.792;9.946;2022-10-30T07:04:00;12.40;99.90
13976;DHT22;7062;49.792;9.946;2022-10-30T07:06:25;12.30;99.90
13976;DHT22;7062;49.792;9.946;2022-10-30T07:08:51;12.40;99.90
13976;DHT22;7062;49.792;9.946;2022-10-30T07:11:17;12.30;99.90
13976;DHT22;7062;49.792;9.946;2022-10-30T07:13:44;12.40;99.90
13976;DHT22;7062;49.792;9.946;2022-10-30T07:16:10;12.30;99.90
13976;DHT22;7062;49.792;9.946;2022-10-30T07:18:35;12.30;99.90
13976;DHT22;7062;49.792;9.946;2022-10-30T07:21:01;12.30;99.90
13976;DHT22;7062;49.792;9.946;2022-10-30T07:23:26;12.40;99.90
13976;DHT22;7062;49.792;9.946;2022-10-30T07:25:52;12.40;99.90
13976;DHT22;7062;49.792;9.946;2022-10-30T07:28:18;12.50;99.90
13976;DHT22;7062;49.792;9.946;2022-10-30T07:30:43;12.50;99.90
13976;DHT22;7062;49.792;9.946;2022-10-30T07:33:09;12.60;99.90
13976;DHT22;7062;49.792;9.946;2022-10-30T07:35:35;12.50;99.90
13976;DHT22;7062;49.792;9.946;2022-10-30T07:38:09;12.60;99.90
13976;DHT22;7062;49.792;9.946;2022-10-30T07:40:35;12.70;99.90
13976;DHT22;7062;49.792;9.946;2022-10-30T07:43:01;12.80;99.90
13976;DHT22;7062;49.792;9.946;2022-10-30T07:45:27;12.80;99.90
13976;DHT22;7062;49.792;9.946;2022-10-30T07:47:54;12.80;99.90
13976;DHT22;7062;49.792;9.946;2022-10-30T07:50:20;13.00;99.90
13976;DHT22;7062;49.792;9.946;2022-10-30T07:52:46;13.10;99.90
13976;DHT22;7062;49.792;9.946;2022-10-30T07:55:12;13.10;99.90
13976;DHT22;7062;49.792;9.946;2022-10-30T07:57:39;13.20;99.90
13976;DHT22;7062;49.792;9.946;2022-10-30T08:00:10;13.20;99.90
13976;DHT22;7062;49.792;9.946;2022-10-30T08:02:36;13.30;99.90
13976;DHT22;7062;49.792;9.946;2022-10-30T08:05:03;13.30;99.90
13976;DHT22;7062;49.792;9.946;2022-10-30T08:07:33;13.40;99.90
13976;DHT22;7062;49.792;9.946;2022-10-30T08:09:59;13.50;99.90
13976;DHT22;7062;49.792;9.946;2022-10-30T08:12:25;13.60;99.90
13976;DHT22;7062;49.792;9.946;2022-10-30T08:14:51;13.50;99.90
13976;DHT22;7062;49.792;9.946;2022-10-30T08:17:17;13.50;99.90
13976;DHT22;7062;49.792;9.946;2022-10-30T08:19:43;13.60;99.90
13976;DHT22;7062;49.792;9.946;2022-10-30T08:22:12;13.60;99.90
13976;DHT22;7062;49.792;9.946;2022-10-30T08:24:38;13.60;99.90
13976;DHT22;7062;49.792;9.946;2022-10-30T08:27:04;13.80;99.90
13976;DHT22;7062;49.792;9.946;2022-10-30T08:29:30;13.90;99.90
13976;DHT22;7062;49.792;9.946;2022-10-30T08:31:56;13.90;99.90
13976;DHT22;7062;49.792;9.946;2022-10-30T08:34:22;13.90;99.90
13976;DHT22;7062;49.792;9.946;2022-10-30T08:36:49;13.70;99.90
13976;DHT22;7062;49.792;9.946;2022-10-30T08:39:16;13.70;99.90
13976;DHT22;7062;49.792;9.946;2022-10-30T08:41:42;13.70;99.90
13976;DHT22;7062;49.792;9.946;2022-10-30T08:44:08;13.70;99.90
13976;DHT22;7062;49.792;9.946;2022-10-30T08:46:33;13.70;99.90
13976;DHT22;7062;49.792;9.946;2022-10-30T08:49:00;13.80;99.90
13976;DHT22;7062;49.792;9.946;2022-10-30T08:51:26;13.90;99.90
13976;DHT22;7062;49.792;9.946;2022-10-30T08:53:51;13.90;99.90
13976;DHT22;7062;49.792;9.946;2022-10-30T08:56:17;13.90;99.90
13976;DHT22;7062;49.792;9.946;2022-10-30T08:58:43;14.00;99.90
13976;DHT22;7062;49.792;9.946;2022-10-30T09:01:09;14.20;99.90
13976;DHT22;7062;49.792;9.946;2022-10-30T09:03:35;14.30;99.90
13976;DHT22;7062;49.792;9.946;2022-10-30T09:06:01;14.20;99.90
13976;DHT22;7062;49.792;9.946;2022-10-30T09:08:27;14.40;99.90
13976;DHT22;7062;49.792;9.946;2022-10-30T09:10:56;14.50;99.90
13976;DHT22;7062;49.792;9.946;2022-10-30T09:13:22;14.50;99.90
13976;DHT22;7062;49.792;9.946;2022-10-30T09:15:48;14.60;99.90
13976;DHT22;7062;49.792;9.946;2022-10-30T09:18:14;14.50;99.90
13976;DHT22;7062;49.792;9.946;2022-10-30T09:20:40;14.50;99.90
13976;DHT22;7062;49.792;9.946;2022-10-30T09:23:05;14.40;99.90
13976;DHT22;7062;49.792;9.946;2022-10-30T09:25:31;14.40;99.90
13976;DHT22;7062;49.792;9.946;2022-10-30T09:27:57;14.40;99.90
13976;DHT22;7062;49.792;9.946;2022-10-30T09:30:23;14.30;99.90
13976;DHT22;7062;49.792;9.946;2022-10-30T09:32:58;14.20;99.90
13976;DHT22;7062;49.792;9.946;2022-10-30T09:35:25;14.20;99.90
13976;DHT22;7062;49.792;9.946;2022-10-30T09:37:50;14.30;99.90
13976;DHT22;7062;49.792;9.946;2022-10-30T09:40:24;14.30;99.90
13976;DHT22;7062;49.792;9.946;2022-10-30T09:43:02;14.50;99.90
13976;DHT22;7062;49.792;9.946;2022-10-30T09:45:55;14.80;99.90
13976;DHT22;7062;49.792;9.946;2022-10-30T09:48:47;15.10;99.90
13976;DHT22;7062;49.792;9.946;2022-10-30T09:54:46;15.40;99.90
13976;DHT22;7062;49.792;9.946;2022-10-30T09:57:24;15.40;99.90
13976;DHT22;7062;49.792;9.946;2022-10-30T10:05:19;15.50;99.90
13976;DHT22;7062;49.792;9.946;2022-10-30T10:07:53;15.70;99.90
13976;DHT22;7062;49.792;9.946;2022-10-30T10:10:39;16.00;99.90
13976;DHT22;7062;49.792;9.946;2022-10-30T10:13:22;16.90;99.90
13976;DHT22;7062;49.792;9.946;2022-10-30T10:16:19;17.60;99.90
13976;DHT22;7062;49.792;9.946;2022-10-30T10:21:28;20.40;99.90
13976;DHT22;7062;49.792;9.946;2022-10-30T10:23:59;21.40;99.90
13976;DHT22;7062;49.792;9.946;2022-10-30T10:26:29;22.00;99.90
13976;DHT22;7062;49.792;9.946;2022-10-30T10:48:56;31.90;99.90
13976;DHT22;7062;49.792;9.946;2022-10-30T10:51:16;32.60;99.30
13976;DHT22;7062;49.792;9.946;2022-10-30T10:56:13;33.50;97.30
13976;DHT22;7062;49.792;9.946;2022-10-30T10:58:52;33.90;96.30
13976;DHT22;7062;49.792;9.946;2022-10-30T11:01:34;35.10;94.50
13976;DHT22;7062;49.792;9.946;2022-10-30T11:04:12;31.90;95.30
13976;DHT22;7062;49.792;9.946;2022-10-30T11:06:41;27.80;98.80
13976;DHT22;7062;49.792;9.946;2022-10-30T11:09:19;25.80;99.90
13976;DHT22;7062;49.792;9.946;2022-10-30T11:11:46;23.70;99.90
13976;DHT22;7062;49.792;9.946;2022-10-30T11:14:28;22.30;99.90
13976;DHT22;7062;49.792;9.946;2022-10-30T11:17:18;21.20;99.90
13976;DHT22;7062;49.792;9.946;2022-10-30T11:19:48;20.80;99.90
13976;DHT22;7062;49.792;9.946;2022-10-30T11:22:36;20.20;99.90
13976;DHT22;7062;49.792;9.946;2022-10-30T11:25:22;19.60;99.90
13976;DHT22;7062;49.792;9.946;2022-10-30T11:28:08;19.30;99.90
13976;DHT22;7062;49.792;9.946;2022-10-30T11:30:48;19.20;99.90
13976;DHT22;7062;49.792;9.946;2022-10-30T11:33:21;19.20;99.90
13976;DHT22;7062;49.792;9.946;2022-10-30T11:35:47;19.10;99.90
13976;DHT22;7062;49.792;9.946;2022-10-30T11:38:18;19.00;99.90
13976;DHT22;7062;49.792;9.946;2022-10-30T11:40:46;19.20;99.90
13976;DHT22;7062;49.792;9.946;2022-10-30T11:43:16;19.40;99.90
13976;DHT22;7062;49.792;9.946;2022-10-30T11:45:43;19.50;99.90
13976;DHT22;7062;49.792;9.946;2022-10-30T11:48:20;19.50;99.90
13976;DHT22;7062;49.792;9.946;2022-10-30T11:50:48;19.50;99.90
13976;DHT22;7062;49.792;9.946;2022-10-30T11:53:36;19.60;99.90
13976;DHT22;7062;49.792;9.946;2022-10-30T11:56:18;19.70;99.90
13976;DHT22;7062;49.792;9.946;2022-10-30T11:58:48;19.90;99.90
13976;DHT22;7062;49.792;9.946;2022-10-30T12:01:34;19.80;99.90
13976;DHT22;7062;49.792;9.946;2022-10-30T12:04:23;20.00;99.90
13976;DHT22;7062;49.792;9.946;2022-10-30T12:09:46;20.20;99.90
13976;DHT22;7062;49.792;9.946;2022-10-30T12:12:38;20.20;99.90
13976;DHT22;7062;49.792;9.946;2022-10-30T12:17:33;20.40;99.90
13976;DHT22;7062;49.792;9.946;2022-10-30T12:19:59;20.50;99.90
13976;DHT22;7062;49.792;9.946;2022-10-30T12:22:31;20.60;99.90
13976;DHT22;7062;49.792;9.946;2022-10-30T12:25:03;20.70;99.90
13976;DHT22;7062;49.792;9.946;2022-10-30T12:27:34;20.80;99.90
13976;DHT22;7062;49.792;9.946;2022-10-30T12:30:13;20.80;99.90
13976;DHT22;7062;49.792;9.946;2022-10-30T12:37:48;20.70;99.90
13976;DHT22;7062;49.792;9.946;2022-10-30T12:40:24;20.80;99.90
13976;DHT22;7062;49.792;9.946;2022-10-30T12:43:04;21.00;99.90
13976;DHT22;7062;49.792;9.946;2022-10-30T12:45:40;21.10;99.90
13976;DHT22;7062;49.792;9.946;2022-10-30T12:48:24;21.10;99.90
13976;DHT22;7062;49.792;9.946;2022-10-30T12:51:18;21.20;99.90
13976;DHT22;7062;49.792;9.946;2022-10-30T12:56:34;21.30;99.90
13976;DHT22;7062;49.792;9.946;2022-10-30T13:01:40;21.40;99.90
13976;DHT22;7062;49.792;9.946;2022-10-30T13:04:22;21.60;99.90
13976;DHT22;7062;49.792;9.946;2022-10-30T13:12:20;21.70;99.90
13976;DHT22;7062;49.792;9.946;2022-10-30T13:14:54;21.90;99.90
13976;DHT22;7062;49.792;9.946;2022-10-30T13:17:22;22.10;99.90
13976;DHT22;7062;49.792;9.946;2022-10-30T13:19:48;22.30;99.90
13976;DHT22;7062;49.792;9.946;2022-10-30T13:22:19;22.60;99.90
13976;DHT22;7062;49.792;9.946;2022-10-30T13:30:12;26.80;99.90
13976;DHT22;7062;49.792;9.946;2022-10-30T13:38:09;31.50;99.90
13976;DHT22;7062;49.792;9.946;2022-10-30T13:43:26;33.00;99.90
13976;DHT22;7062;49.792;9.946;2022-10-30T13:54:21;35.20;96.60
13976;DHT22;7062;49.792;9.946;2022-10-30T13:56:48;34.90;96.60
13976;DHT22;7062;49.792;9.946;2022-10-30T14:02:59;33.90;96.20
13976;DHT22;7062;49.792;9.946;2022-10-30T14:05:14;33.20;96.30
13976;DHT22;7062;49.792;9.946;2022-10-30T14:10:46;31.40;98.00
13976;DHT22;7062;49.792;9.946;2022-10-30T14:16:40;31.20;98.60
13976;DHT22;7062;49.792;9.946;2022-10-30T14:19:10;31.40;98.20
13976;DHT22;7062;49.792;9.946;2022-10-30T14:21:37;31.40;98.40
13976;DHT22;7062;49.792;9.946;2022-10-30T14:24:13;31.70;98.00
13976;DHT22;7062;49.792;9.946;2022-10-30T14:26:56;31.40;97.80
13976;DHT22;7062;49.792;9.946;2022-10-30T14:34:56;29.10;99.90
13976;DHT22;7062;49.792;9.946;2022-10-30T14:39:56;29.10;99.90
13976;DHT22;7062;49.792;9.946;2022-10-30T14:42:40;28.90;99.90
13976;DHT22;7062;49.792;9.946;2022-10-30T14:48:23;28.40;99.90
13976;DHT22;7062;49.792;9.946;2022-10-30T14:58:42;25.40;99.90
13976;DHT22;7062;49.792;9.946;2022-10-30T15:03:53;24.50;99.90
13976;DHT22;7062;49.792;9.946;2022-10-30T15:06:40;24.10;99.90
13976;DHT22;7062;49.792;9.946;2022-10-30T15:14:58;23.10;99.90
13976;DHT22;7062;49.792;9.946;2022-10-30T15:19:53;22.60;99.90
13976;DHT22;7062;49.792;9.946;2022-10-30T15:22:20;22.40;99.90
13976;DHT22;7062;49.792;9.946;2022-10-30T15:24:49;22.20;99.90
13976;DHT22;7062;49.792;9.946;2022-10-30T15:27:18;22.20;99.90
13976;DHT22;7062;49.792;9.946;2022-10-30T15:30:03;22.10;99.90
13976;DHT22;7062;49.792;9.946;2022-10-30T15:32:29;21.80;99.90
13976;DHT22;7062;49.792;9.946;2022-10-30T15:34:59;21.60;99.90
13976;DHT22;7062;49.792;9.946;2022-10-30T15:37:27;21.40;99.90
13976;DHT22;7062;49.792;9.946;2022-10-30T15:40:18;21.30;99.90
13976;DHT22;7062;49.792;9.946;2022-10-30T15:42:46;21.10;99.90
13976;DHT22;7062;49.792;9.946;2022-10-30T15:45:32;20.90;99.90
13976;DHT22;7062;49.792;9.946;2022-10-30T15:51:13;20.50;99.90
13976;DHT22;7062;49.792;9.946;2022-10-30T15:53:45;20.40;99.90
13976;DHT22;7062;49.792;9.946;2022-10-30T15:56:36;20.20;99.90
13976;DHT22;7062;49.792;9.946;2022-10-30T15:59:13;20.00;99.90
13976;DHT22;7062;49.792;9.946;2022-10-30T16:01:45;19.80;99.90
13976;DHT22;7062;49.792;9.946;2022-10-30T16:04:19;19.70;99.90
13976;DHT22;7062;49.792;9.946;2022-10-30T16:07:02;19.70;99.90
13976;DHT22;7062;49.792;9.946;2022-10-30T16:09:35;19.60;99.90
13976;DHT22;7062;49.792;9.946;2022-10-30T16:12:01;19.50;99.90
13976;DHT22;7062;49.792;9.946;2022-10-30T16:14:29;19.40;99.90
13976;DHT22;7062;49.792;9.946;2022-10-30T16:16:59;19.40;99.90
13976;DHT22;7062;49.792;9.946;2022-10-30T16:19:32;19.30;99.90
13976;DHT22;7062;49.792;9.946;2022-10-30T16:21:59;19.20;99.90
13976;DHT22;7062;49.792;9.946;2022-10-30T16:24:32;19.20;99.90
13976;DHT22;7062;49.792;9.946;2022-10-30T16:27:12;19.00;99.90
13976;DHT22;7062;49.792;9.946;2022-10-30T16:29:38;19.00;99.90
13976;DHT22;7062;49.792;9.946;2022-10-30T16:32:09;18.80;99.90
13976;DHT22;7062;49.792;9.946;2022-10-30T16:34:36;18.80;99.90
13976;DHT22;7062;49.792;9.946;2022-10-30T16:37:05;18.80;99.90
13976;DHT22;7062;49.792;9.946;2022-10-30T16:39:32;18.70;99.90
13976;DHT22;7062;49.792;9.946;2022-10-30T16:41:59;18.50;99.90
13976;DHT22;7062;49.792;9.946;2022-10-30T16:44:27;18.50;99.90
13976;DHT22;7062;49.792;9.946;2022-10-30T16:46:57;18.40;99.90
13976;DHT22;7062;49.792;9.946;2022-10-30T16:49:29;18.30;99.90
13976;DHT22;7062;49.792;9.946;2022-10-30T16:52:15;18.20;99.90
13976;DHT22;7062;49.792;9.946;2022-10-30T16:54:52;18.20;99.90
13976;DHT22;7062;49.792;9.946;2022-10-30T16:57:26;18.20;99.90
13976;DHT22;7062;49.792;9.946;2022-10-30T16:59:54;18.00;99.90
13976;DHT22;7062;49.792;9.946;2022-10-30T17:02:23;17.90;99.90
13976;DHT22;7062;49.792;9.946;2022-10-30T17:05:13;17.90;99.90
13976;DHT22;7062;49.792;9.946;2022-10-30T17:07:59;17.80;99.90
13976;DHT22;7062;49.792;9.946;2022-10-30T17:15:52;17.60;99.90
13976;DHT22;7062;49.792;9.946;2022-10-30T17:18:17;17.60;99.90
13976;DHT22;7062;49.792;9.946;2022-10-30T17:20:45;17.40;99.90
13976;DHT22;7062;49.792;9.946;2022-10-30T17:23:18;17.30;99.90
13976;DHT22;7062;49.792;9.946;2022-10-30T17:25:44;17.30;99.90
13976;DHT22;7062;49.792;9.946;2022-10-30T17:28:33;17.30;99.90
13976;DHT22;7062;49.792;9.946;2022-10-30T17:33:44;17.20;99.90
13976;DHT22;7062;49.792;9.946;2022-10-30T17:36:10;17.20;99.90
13976;DHT22;7062;49.792;9.946;2022-10-30T17:38:35;17.10;99.90
13976;DHT22;7062;49.792;9.946;2022-10-30T17:41:02;17.10;99.90
13976;DHT22;7062;49.792;9.946;2022-10-30T17:43:30;17.00;99.90
13976;DHT22;7062;49.792;9.946;2022-10-30T17:45:57;17.00;99.90
13976;DHT22;7062;49.792;9.946;2022-10-30T17:48:27;16.90;99.90
13976;DHT22;7062;49.792;9.946;2022-10-30T17:50:54;16.90;99.90
13976;DHT22;7062;49.792;9.946;2022-10-30T17:53:22;16.80;99.90
13976;DHT22;7062;49.792;9.946;2022-10-30T17:56:01;16.80;99.90
13976;DHT22;7062;49.792;9.946;2022-10-30T17:58:27;16.80;99.90
13976;DHT22;7062;49.792;9.946;2022-10-30T18:00:55;16.60;99.90
13976;DHT22;7062;49.792;9.946;2022-10-30T18:03:21;16.40;99.90
13976;DHT22;7062;49.792;9.946;2022-10-30T18:05:47;16.50;99.90
13976;DHT22;7062;49.792;9.946;2022-10-30T18:08:13;16.40;99.90
13976;DHT22;7062;49.792;9.946;2022-10-30T18:10:38;16.40;99.90
13976;DHT22;7062;49.792;9.946;2022-10-30T18:13:04;16.30;99.90
13976;DHT22;7062;49.792;9.946;2022-10-30T18:15:33;16.30;99.90
13976;DHT22;7062;49.792;9.946;2022-10-30T18:18:03;16.20;99.90
13976;DHT22;7062;49.792;9.946;2022-10-30T18:20:29;16.20;99.90
13976;DHT22;7062;49.792;9.946;2022-10-30T18:22:55;16.10;99.90
13976;DHT22;7062;49.792;9.946;2022-10-30T18:25:35;16.10;99.90
13976;DHT22;7062;49.792;9.946;2022-10-30T18:28:01;16.10;99.90
13976;DHT22;7062;49.792;9.946;2022-10-30T18:30:26;16.00;99.90
13976;DHT22;7062;49.792;9.946;2022-10-30T18:32:54;16.00;99.90